createdAt,value
2018-05-04T00:02:04.742Z,8.40
2018-05-04T00:04:32.352Z,8.57
2018-05-04T00:06:59.993Z,8.33
2018-05-04T00:09:27.627Z,8.90
2018-05-04T00:11:55.194Z,8.40
2018-05-04T00:14:22.761Z,8.97
2018-05-04T00:16:50.315Z,8.37
2018-05-04T00:19:18.116Z,7.90
2018-05-04T00:21:45.727Z,7.93
2018-05-04T00:24:13.323Z,7.77
2018-05-04T00:26:40.886Z,7.50
2018-05-04T00:29:08.526Z,7.10
2018-05-04T00:31:36.102Z,7.00
2018-05-04T00:34:03.675Z,6.63
2018-05-04T00:36:31.278Z,6.97
2018-05-04T00:38:58.986Z,6.90
2018-05-04T00:41:26.655Z,7.67
2018-05-04T00:43:54.255Z,7.30
2018-05-04T00:46:21.850Z,7.70
2018-05-04T00:48:49.434Z,7.80
2018-05-04T00:51:17.011Z,7.73
2018-05-04T00:53:56.354Z,6.97
2018-05-04T00:56:23.921Z,6.83
2018-05-04T00:58:51.530Z,6.67
2018-05-04T01:01:19.143Z,6.80
2018-05-04T01:03:46.752Z,6.73
2018-05-04T01:06:15.131Z,7.03
2018-05-04T01:08:57.809Z,6.13
2018-05-04T01:11:25.391Z,6.33
2018-05-04T01:13:53.734Z,6.10
2018-05-04T01:16:21.303Z,6.60
2018-05-04T01:18:48.904Z,6.27
2018-05-04T01:21:16.505Z,6.10
2018-05-04T01:23:44.067Z,6.10
2018-05-04T01:26:11.659Z,6.87
2018-05-04T01:28:39.235Z,6.63
2018-05-04T01:31:07.575Z,6.57
2018-05-04T01:33:35.194Z,6.37
2018-05-04T01:36:02.792Z,6.00
2018-05-04T01:38:30.379Z,5.77
2018-05-04T01:40:57.947Z,5.57
2018-05-04T01:43:26.323Z,6.33
2018-05-04T01:45:53.904Z,6.10
2018-05-04T01:48:21.483Z,5.83
2018-05-04T01:50:49.055Z,6.27
2018-05-04T01:53:16.628Z,6.20
2018-05-04T01:55:44.216Z,6.90
2018-05-04T01:58:11.802Z,6.83
2018-05-04T02:00:39.429Z,7.67
2018-05-04T02:03:07.024Z,7.23
2018-05-04T02:05:34.608Z,7.87
2018-05-04T02:08:02.224Z,7.23
2018-05-04T02:10:30.583Z,8.00
2018-05-04T02:12:58.187Z,7.70
2018-05-04T02:15:25.742Z,7.77
2018-05-04T02:17:53.435Z,6.90
2018-05-04T02:20:21.019Z,7.07
2018-05-04T02:22:48.587Z,6.63
2018-05-04T02:25:16.117Z,6.13
2018-05-04T02:27:43.707Z,6.30
2018-05-04T02:30:11.325Z,6.90
2018-05-04T02:32:38.915Z,6.50
2018-05-04T02:35:06.499Z,6.30
2018-05-04T02:37:34.926Z,6.30
2018-05-04T02:40:02.538Z,6.60
2018-05-04T02:42:30.119Z,7.03
2018-05-04T02:44:57.684Z,7.43
2018-05-04T02:47:25.379Z,6.83
2018-05-04T02:49:52.974Z,7.20
2018-05-04T02:52:20.567Z,6.67
2018-05-04T02:54:48.148Z,7.17
2018-05-04T02:57:15.722Z,6.67
2018-05-04T02:59:43.335Z,7.10
2018-05-04T03:02:10.953Z,7.23
2018-05-04T03:04:38.556Z,7.00
2018-05-04T03:07:06.919Z,6.80
2018-05-04T03:09:34.534Z,6.30
2018-05-04T03:12:02.084Z,6.17
2018-05-04T03:14:29.697Z,6.33
2018-05-04T03:16:57.304Z,6.70
2018-05-04T03:19:25.083Z,6.33
2018-05-04T03:21:52.653Z,6.03
2018-05-04T03:24:20.248Z,6.47
2018-05-04T03:26:47.823Z,6.53
2018-05-04T03:29:15.541Z,6.30
2018-05-04T03:31:43.088Z,6.23
2018-05-04T03:34:10.691Z,6.07
2018-05-04T03:36:39.027Z,6.33
2018-05-04T03:45:02.878Z,7.03
2018-05-04T03:47:50.926Z,6.67
2018-05-04T03:50:19.251Z,7.67
2018-05-04T03:52:46.837Z,7.53
2018-05-04T03:55:14.404Z,7.57
2018-05-04T03:57:54.135Z,6.43
2018-05-04T04:00:33.532Z,6.87
2018-05-04T04:03:12.852Z,6.90
2018-05-04T04:05:40.427Z,6.77
2018-05-04T04:08:08.000Z,6.83
2018-05-04T04:10:35.583Z,6.77
2018-05-04T04:13:03.158Z,7.07
2018-05-04T04:15:30.720Z,6.43
2018-05-04T04:17:59.154Z,6.87
2018-05-04T04:20:26.731Z,6.37
2018-05-04T04:22:54.335Z,7.00
2018-05-04T04:25:21.923Z,6.77
2018-05-04T04:27:49.502Z,6.70
2018-05-04T04:30:17.072Z,7.30
2018-05-04T04:32:44.641Z,6.20
2018-05-04T04:35:12.228Z,6.77
2018-05-04T04:37:39.852Z,7.60
2018-05-04T04:40:07.443Z,7.40
2018-05-04T04:42:35.041Z,6.37
2018-05-04T04:45:02.654Z,7.23
2018-05-04T04:47:31.044Z,6.70
2018-05-04T04:49:58.622Z,7.43
2018-05-04T04:52:26.223Z,6.77
2018-05-04T04:54:53.762Z,6.37
2018-05-04T04:57:21.364Z,6.70
2018-05-04T04:59:48.940Z,6.50
2018-05-04T05:02:16.540Z,6.50
2018-05-04T05:04:44.106Z,6.33
2018-05-04T05:07:11.698Z,6.83
2018-05-04T05:09:39.259Z,6.30
2018-05-04T05:12:06.908Z,6.40
2018-05-04T05:14:34.492Z,6.70
2018-05-04T05:17:02.048Z,6.87
2018-05-04T05:19:29.648Z,6.10
2018-05-04T05:21:57.226Z,6.47
2018-05-04T05:24:24.821Z,6.33
2018-05-04T05:26:52.451Z,6.87
2018-05-04T05:29:20.072Z,6.70
2018-05-04T05:31:47.673Z,7.43
2018-05-04T05:34:15.237Z,7.03
2018-05-04T05:36:42.781Z,6.77
2018-05-04T05:39:10.475Z,6.90
2018-05-04T05:41:38.055Z,6.23
2018-05-04T05:44:05.620Z,6.83
2018-05-04T05:46:33.204Z,6.63
2018-05-04T05:49:01.193Z,6.10
2018-05-04T05:51:28.754Z,6.43
2018-05-04T05:53:56.311Z,6.30
2018-05-04T05:56:23.849Z,6.20
2018-05-04T05:59:10.903Z,5.97
2018-05-04T06:01:38.516Z,5.83
2018-05-04T06:04:06.122Z,5.90
2018-05-04T06:06:33.865Z,5.90
2018-05-04T06:09:01.447Z,5.83
2018-05-04T06:11:29.029Z,5.70
2018-05-04T06:13:56.607Z,6.17
2018-05-04T06:16:24.188Z,6.17
2018-05-04T06:18:51.766Z,5.70
2018-05-04T06:21:20.126Z,5.70
2018-05-04T06:23:47.699Z,6.33
2018-05-04T06:26:15.302Z,6.43
2018-05-04T06:28:42.872Z,5.77
2018-05-04T06:31:10.507Z,5.93
2018-05-04T06:33:38.090Z,6.27
2018-05-04T06:36:05.796Z,6.10
2018-05-04T06:38:43.207Z,5.70
2018-05-04T06:41:10.746Z,5.83
2018-05-04T06:43:38.363Z,5.83
2018-05-04T06:46:05.953Z,5.87
2018-05-04T06:48:33.629Z,6.07
2018-05-04T06:51:01.243Z,5.67
2018-05-04T06:53:28.809Z,5.77
2018-05-04T06:55:56.408Z,5.83
2018-05-04T06:58:24.049Z,5.90
2018-05-04T07:00:51.584Z,5.97
2018-05-04T07:03:19.147Z,6.50
2018-05-04T07:05:46.723Z,6.13
2018-05-04T07:08:33.815Z,6.93
2018-05-04T07:11:01.441Z,6.13
2018-05-04T07:13:29.033Z,6.23
2018-05-04T07:15:56.582Z,6.73
2018-05-04T07:18:30.178Z,7.53
2018-05-04T07:20:57.779Z,7.37
2018-05-04T07:23:25.358Z,7.17
2018-05-04T07:25:52.961Z,7.30
2018-05-04T07:28:20.562Z,6.30
2018-05-04T07:30:48.147Z,6.00
2018-05-04T07:33:15.715Z,6.40
2018-05-04T07:35:43.306Z,6.30
2018-05-04T07:38:11.065Z,5.80
2018-05-04T07:40:38.679Z,6.00
2018-05-04T07:43:06.353Z,6.03
2018-05-04T07:45:33.861Z,5.93
2018-05-04T07:48:01.429Z,5.90
2018-05-04T07:50:29.035Z,5.60
2018-05-04T07:52:56.604Z,5.60
2018-05-04T07:55:24.240Z,5.10
2018-05-04T07:57:51.895Z,4.63
2018-05-04T08:00:19.489Z,4.63
2018-05-04T08:02:47.923Z,3.93
2018-05-04T08:05:15.491Z,3.60
2018-05-04T08:07:43.082Z,4.20
2018-05-04T08:10:10.666Z,4.43
2018-05-04T08:12:38.222Z,4.67
2018-05-04T08:15:05.814Z,4.23
2018-05-04T08:17:33.419Z,5.27
2018-05-04T08:20:01.080Z,5.40
2018-05-04T08:22:28.661Z,4.40
2018-05-04T08:24:56.218Z,5.93
2018-05-04T08:27:23.826Z,7.77
2018-05-04T08:29:51.415Z,9.43
2018-05-04T08:32:18.991Z,9.43
2018-05-04T08:34:46.563Z,9.03
2018-05-04T08:37:14.947Z,11.17
2018-05-04T08:39:42.505Z,11.17
2018-05-04T08:42:10.054Z,11.13
2018-05-04T08:44:37.658Z,11.77
2018-05-04T08:47:05.226Z,10.77
2018-05-04T08:49:32.853Z,11.47
2018-05-04T08:52:00.445Z,10.97
2018-05-04T08:54:28.167Z,11.37
2018-05-04T08:56:55.639Z,12.33
2018-05-04T08:59:23.235Z,12.33
2018-05-04T09:01:50.826Z,12.53
2018-05-04T09:04:18.454Z,13.10
2018-05-04T09:06:46.043Z,12.77
2018-05-04T09:09:13.711Z,12.83
2018-05-04T09:11:41.331Z,12.87
2018-05-04T09:14:08.936Z,11.73
2018-05-04T09:16:36.513Z,12.93
2018-05-04T09:19:04.152Z,11.60
2018-05-04T09:21:31.743Z,12.30
2018-05-04T09:23:59.327Z,12.40
2018-05-04T09:26:26.936Z,12.07
2018-05-04T09:28:59.723Z,13.20
2018-05-04T09:31:27.328Z,13.03
2018-05-04T09:33:54.907Z,14.57
2018-05-04T09:36:22.475Z,14.40
2018-05-04T09:38:50.817Z,13.93
2018-05-04T09:41:18.427Z,14.50
2018-05-04T09:43:46.238Z,14.03
2018-05-04T09:46:13.582Z,14.60
2018-05-04T09:48:41.240Z,15.10
2018-05-04T09:51:08.870Z,16.10
2018-05-04T09:53:36.460Z,15.13
2018-05-04T09:56:04.101Z,16.43
2018-05-04T09:58:41.551Z,15.47
2018-05-04T10:01:09.135Z,15.90
2018-05-04T10:03:36.765Z,16.07
2018-05-04T10:06:04.361Z,15.97
2018-05-04T10:08:31.961Z,16.90
2018-05-04T10:10:59.546Z,16.83
2018-05-04T10:13:27.150Z,15.17
2018-05-04T10:15:54.734Z,16.77
2018-05-04T10:18:22.339Z,16.77
2018-05-04T10:20:49.936Z,16.30
2018-05-04T10:23:17.558Z,16.57
2018-05-04T10:25:45.175Z,16.83
2018-05-04T10:28:12.836Z,17.43
2018-05-04T10:30:40.438Z,16.73
2018-05-04T10:33:07.999Z,15.90
2018-05-04T10:35:36.387Z,17.60
2018-05-04T10:38:04.178Z,17.17
2018-05-04T10:40:31.828Z,15.43
2018-05-04T10:42:59.516Z,16.40
2018-05-04T10:45:27.104Z,16.83
2018-05-04T10:47:54.699Z,16.37
2018-05-04T10:50:22.294Z,16.37
2018-05-04T10:52:49.895Z,19.27
2018-05-04T10:55:17.578Z,18.77
2018-05-04T10:57:54.876Z,18.23
2018-05-04T11:00:22.491Z,18.20
2018-05-04T11:02:50.079Z,17.90
2018-05-04T11:05:17.773Z,18.97
2018-05-04T11:07:45.367Z,19.53
2018-05-04T11:10:13.000Z,19.40
2018-05-04T11:12:40.574Z,18.30
2018-05-04T11:15:08.209Z,19.63
2018-05-04T11:17:35.815Z,18.63
2018-05-04T11:20:03.391Z,18.97
2018-05-04T11:22:31.015Z,20.03
2018-05-04T11:24:58.611Z,19.03
2018-05-04T11:27:27.010Z,20.30
2018-05-04T11:29:54.615Z,20.63
2018-05-04T11:32:22.231Z,19.73
2018-05-04T11:34:49.830Z,19.87
2018-05-04T11:37:17.482Z,20.63
2018-05-04T11:39:54.887Z,20.40
2018-05-04T11:42:22.460Z,20.50
2018-05-04T11:44:50.051Z,20.20
2018-05-04T11:47:17.742Z,19.17
2018-05-04T11:49:45.349Z,19.83
2018-05-04T11:52:13.760Z,19.70
2018-05-04T11:54:41.360Z,19.70
2018-05-04T11:57:08.942Z,18.67
2018-05-04T11:59:36.670Z,20.00
2018-05-04T12:02:04.276Z,19.87
2018-05-04T12:04:31.874Z,20.87
2018-05-04T12:06:59.467Z,20.63
2018-05-04T12:09:32.027Z,20.30
2018-05-04T12:11:59.649Z,21.23
2018-05-04T12:14:27.274Z,18.77
2018-05-04T12:16:54.877Z,21.13
2018-05-04T12:19:22.496Z,20.27
2018-05-04T12:21:50.087Z,20.53
2018-05-04T12:24:17.664Z,20.70
2018-05-04T12:26:45.239Z,20.57
2018-05-04T12:29:12.941Z,21.23
2018-05-04T12:31:40.529Z,21.70
2018-05-04T12:34:08.147Z,21.43
2018-05-04T12:36:35.786Z,21.13
2018-05-04T12:39:03.361Z,20.43
2018-05-04T12:41:31.744Z,19.87
2018-05-04T12:43:59.351Z,20.03
2018-05-04T12:46:26.933Z,19.80
2018-05-04T12:48:54.566Z,20.50
2018-05-04T12:51:22.195Z,20.57
2018-05-04T12:53:50.039Z,21.00
2018-05-04T12:56:17.602Z,20.83
2018-05-04T12:58:45.199Z,20.43
2018-05-04T13:01:12.797Z,20.23
2018-05-04T13:03:40.366Z,19.93
2018-05-04T13:06:07.972Z,19.43
2018-05-04T13:08:36.712Z,18.90
2018-05-04T13:11:04.349Z,18.17
2018-05-04T13:13:31.931Z,19.07
2018-05-04T13:15:59.508Z,21.17
2018-05-04T13:18:27.143Z,20.03
2018-05-04T13:20:54.774Z,19.97
2018-05-04T13:23:23.165Z,19.60
2018-05-04T13:25:50.716Z,18.33
2018-05-04T13:28:18.355Z,19.37
2018-05-04T13:30:45.939Z,20.17
2018-05-04T13:33:13.556Z,19.87
2018-05-04T13:35:41.150Z,19.10
2018-05-04T13:38:08.764Z,20.60
2018-05-04T13:40:36.362Z,20.07
2018-05-04T13:43:03.943Z,19.83
2018-05-04T13:45:31.509Z,20.37
2018-05-04T13:47:59.101Z,20.73
2018-05-04T13:50:26.710Z,19.97
2018-05-04T13:52:54.356Z,18.97
2018-05-04T13:55:22.692Z,20.07
2018-05-04T13:57:50.309Z,20.17
2018-05-04T14:00:17.935Z,19.13
2018-05-04T14:02:45.527Z,19.27
2018-05-04T14:05:13.075Z,19.43
2018-05-04T14:07:40.683Z,19.97
2018-05-04T14:10:08.291Z,18.67
2018-05-04T14:12:36.690Z,18.43
2018-05-04T14:15:04.418Z,19.17
2018-05-04T14:17:32.000Z,19.80
2018-05-04T14:19:59.602Z,19.53
2018-05-04T14:22:27.226Z,18.63
2018-05-04T14:24:54.831Z,18.83
2018-05-04T14:27:22.495Z,20.10
2018-05-04T14:29:50.089Z,20.10
2018-05-04T14:32:17.686Z,20.63
2018-05-04T14:34:45.277Z,21.27
2018-05-04T14:37:12.886Z,19.80
2018-05-04T14:39:40.441Z,18.83
2018-05-04T14:42:08.022Z,20.17
2018-05-04T14:44:35.650Z,18.90
2018-05-04T14:47:03.243Z,19.63
2018-05-04T14:49:30.839Z,19.17
2018-05-04T14:51:58.444Z,18.97
2018-05-04T14:54:26.020Z,18.27
2018-05-04T14:56:54.388Z,18.93
2018-05-04T14:59:21.960Z,17.90
2018-05-04T15:01:49.550Z,18.23
2018-05-04T15:04:17.176Z,19.30
2018-05-04T15:06:44.727Z,19.50
2018-05-04T15:09:12.302Z,18.53
2018-05-04T15:11:39.925Z,19.10
2018-05-04T15:14:07.487Z,19.40
2018-05-04T15:16:35.070Z,19.00
2018-05-04T15:19:02.671Z,18.83
2018-05-04T15:21:30.266Z,20.30
2018-05-04T15:23:57.810Z,18.07
2018-05-04T15:26:25.428Z,18.17
2018-05-04T15:28:52.990Z,20.07
2018-05-04T15:31:20.608Z,17.40
2018-05-04T15:33:48.227Z,18.77
2018-05-04T15:36:15.828Z,18.20
2018-05-04T15:38:53.141Z,18.90
2018-05-04T15:41:20.701Z,18.50
2018-05-04T15:43:48.279Z,18.97
2018-05-04T15:46:15.866Z,18.03
2018-05-04T15:48:49.105Z,17.73
2018-05-04T15:51:22.380Z,17.03
2018-05-04T15:53:49.951Z,18.30
2018-05-04T15:56:17.555Z,18.93
2018-05-04T15:58:45.183Z,17.73
2018-05-04T16:01:12.760Z,18.90
2018-05-04T16:03:40.371Z,18.00
2018-05-04T16:06:08.975Z,18.07
2018-05-04T16:08:50.843Z,17.80
2018-05-04T16:11:18.423Z,17.70
2018-05-04T16:13:46.035Z,18.17
2018-05-04T16:16:13.539Z,19.00
2018-05-04T16:18:41.915Z,18.97
2018-05-04T16:21:09.486Z,19.10
2018-05-04T16:23:37.050Z,17.70
2018-05-04T16:26:04.670Z,19.37
2018-05-04T16:28:32.982Z,19.50
2018-05-04T16:31:01.355Z,20.20
2018-05-04T16:33:28.967Z,20.90
2018-05-04T16:35:56.571Z,20.63
2018-05-04T16:38:24.139Z,20.57
2018-05-04T16:40:51.762Z,18.67
2018-05-04T16:43:19.366Z,20.10
2018-05-04T16:45:46.975Z,21.10
2018-05-04T16:48:20.149Z,19.90
2018-05-04T16:50:47.751Z,19.50
2018-05-04T16:53:15.311Z,19.17
2018-05-04T16:55:42.912Z,18.93
2018-05-04T16:58:20.259Z,18.07
2018-05-04T17:00:47.863Z,19.07
2018-05-04T17:03:16.423Z,18.43
2018-05-04T17:05:44.037Z,17.80
2018-05-04T17:08:12.435Z,18.20
2018-05-04T17:10:40.050Z,17.77
2018-05-04T17:13:07.628Z,18.50
2018-05-04T17:15:35.229Z,19.40
2018-05-04T17:18:02.799Z,18.27
2018-05-04T17:20:30.412Z,18.07
2018-05-04T17:22:57.990Z,18.90
2018-05-04T17:25:25.575Z,18.07
2018-05-04T17:27:53.158Z,18.83
2018-05-04T17:30:20.710Z,18.50
2018-05-04T17:32:48.310Z,18.33
2018-05-04T17:35:15.913Z,18.63
2018-05-04T17:37:43.489Z,18.23
2018-05-04T17:40:11.085Z,17.73
2018-05-04T17:42:38.666Z,17.43
2018-05-04T17:45:06.226Z,16.77
2018-05-04T17:47:33.899Z,16.90
2018-05-04T17:50:01.445Z,18.80
2018-05-04T17:52:29.103Z,18.53
2018-05-04T17:54:56.698Z,18.00
2018-05-04T17:57:24.298Z,17.77
2018-05-04T17:59:51.878Z,16.07
2018-05-04T18:02:20.229Z,16.87
2018-05-04T18:04:47.841Z,19.73
2018-05-04T18:07:15.426Z,20.50
2018-05-04T18:09:43.018Z,17.63
2018-05-04T18:12:11.406Z,16.00
2018-05-04T18:14:39.820Z,15.77
2018-05-04T18:17:07.406Z,14.63
2018-05-04T18:19:35.016Z,13.83
2018-05-04T18:22:02.623Z,13.97
2018-05-04T18:24:30.223Z,13.47
2018-05-04T18:26:58.567Z,13.17
2018-05-04T18:29:26.303Z,12.47
2018-05-04T18:31:53.914Z,12.40
2018-05-04T18:34:22.255Z,13.37
2018-05-04T18:36:49.861Z,13.27
2018-05-04T18:39:18.336Z,13.10
2018-05-04T18:41:46.670Z,13.13
2018-05-04T18:44:14.212Z,13.17
2018-05-04T18:46:41.849Z,12.37
2018-05-04T18:49:09.650Z,12.37
2018-05-04T18:51:37.284Z,12.73
2018-05-04T18:54:04.884Z,13.23
2018-05-04T18:56:32.480Z,12.37
2018-05-04T19:01:53.063Z,14.30
2018-05-04T19:04:20.628Z,13.50
2018-05-04T19:06:48.251Z,13.47
2018-05-04T19:09:25.502Z,13.03
2018-05-04T19:11:53.084Z,13.63
2018-05-04T19:14:20.626Z,12.40
2018-05-04T19:16:48.217Z,13.50
2018-05-04T19:19:15.835Z,11.70
2018-05-04T19:21:43.450Z,12.53
2018-05-04T19:24:11.047Z,12.23
2018-05-04T19:26:38.694Z,11.57
2018-05-04T19:29:06.381Z,11.80
2018-05-04T19:31:33.920Z,10.93
2018-05-04T19:34:01.508Z,11.17
2018-05-04T19:36:29.083Z,11.33
2018-05-04T19:38:56.689Z,10.67
2018-05-04T19:41:24.315Z,10.77
2018-05-04T19:43:51.869Z,10.57
2018-05-04T19:46:19.446Z,10.87
2018-05-04T19:48:47.062Z,11.93
2018-05-04T19:51:14.659Z,10.87
2018-05-04T19:53:42.238Z,12.33
2018-05-04T19:56:09.853Z,11.57
2018-05-04T19:58:37.539Z,11.97
2018-05-04T20:01:05.059Z,12.20
2018-05-04T20:03:32.639Z,11.80
2018-05-04T20:06:00.227Z,11.70
2018-05-04T20:08:27.845Z,11.70
2018-05-04T20:10:55.410Z,13.37
2018-05-04T20:13:22.971Z,12.27
2018-05-04T20:15:50.582Z,12.67
2018-05-04T20:18:18.143Z,12.87
2018-05-04T20:20:45.768Z,11.70
2018-05-04T20:23:13.348Z,12.50
2018-05-04T20:25:40.945Z,12.53
2018-05-04T20:28:09.302Z,11.63
2018-05-04T20:30:36.899Z,12.03
2018-05-04T20:33:04.483Z,12.60
2018-05-04T20:35:32.087Z,12.13
2018-05-04T20:37:59.703Z,11.77
2018-05-04T20:40:27.248Z,11.27
2018-05-04T20:42:54.848Z,12.30
2018-05-04T20:45:22.463Z,10.47
2018-05-04T20:47:50.223Z,11.80
2018-05-04T20:50:17.805Z,12.33
2018-05-04T20:52:45.363Z,12.60
2018-05-04T20:55:12.983Z,12.80
2018-05-04T20:57:40.583Z,12.60
2018-05-04T21:00:08.158Z,13.90
2018-05-04T21:02:35.788Z,12.33
2018-05-04T21:05:03.394Z,12.90
2018-05-04T21:07:30.994Z,12.10
2018-05-04T21:09:58.611Z,11.90
2018-05-04T21:12:26.211Z,13.13
2018-05-04T21:14:54.523Z,12.80
2018-05-04T21:17:22.152Z,11.17
2018-05-04T21:19:54.883Z,11.20
2018-05-04T21:22:22.490Z,11.73
2018-05-04T21:24:50.083Z,10.87
2018-05-04T21:27:17.690Z,10.83
2018-05-04T21:29:45.301Z,11.23
2018-05-04T21:32:12.901Z,11.50
2018-05-04T21:34:40.486Z,12.93
2018-05-04T21:37:08.085Z,14.70
2018-05-04T21:39:35.764Z,14.57
2018-05-04T21:42:03.350Z,15.23
2018-05-04T21:44:30.961Z,19.83
2018-05-04T21:46:58.534Z,22.70
2018-05-04T21:49:26.212Z,22.57
2018-05-04T21:51:53.829Z,20.30
2018-05-04T21:54:21.408Z,19.23
2018-05-04T21:56:49.014Z,20.07
2018-05-04T21:59:16.622Z,19.87
2018-05-04T22:01:44.236Z,20.27
2018-05-04T22:04:11.851Z,22.87
2018-05-04T22:06:39.436Z,22.87
2018-05-04T22:09:07.022Z,19.83
2018-05-04T22:11:34.633Z,15.87
2018-05-04T22:14:02.222Z,16.67
2018-05-04T22:16:29.807Z,16.20
2018-05-04T22:18:57.403Z,13.93
2018-05-04T22:21:24.976Z,16.90
2018-05-04T22:23:52.559Z,14.07
2018-05-04T22:26:20.153Z,13.17
2018-05-04T22:28:47.698Z,12.97
2018-05-04T22:31:16.038Z,16.17
2018-05-04T22:33:43.662Z,16.37
2018-05-04T22:36:11.228Z,15.20
2018-05-04T22:38:38.832Z,15.83
2018-05-04T22:41:06.428Z,13.70
2018-05-04T22:43:33.987Z,14.30
2018-05-04T22:46:01.534Z,13.77
2018-05-04T22:48:29.157Z,13.03
2018-05-04T22:50:56.739Z,13.47
2018-05-04T22:53:25.127Z,13.13
2018-05-04T22:55:52.736Z,12.93
2018-05-04T22:58:20.315Z,14.77
2018-05-04T23:00:47.872Z,13.13
2018-05-04T23:03:15.475Z,14.77
2018-05-04T23:05:43.034Z,14.80
2018-05-04T23:08:10.612Z,14.50
2018-05-04T23:10:38.213Z,14.80
2018-05-04T23:13:05.815Z,15.20
2018-05-04T23:15:33.400Z,15.23
2018-05-04T23:18:01.019Z,14.70
2018-05-04T23:20:29.423Z,14.43
2018-05-04T23:22:57.039Z,13.87
2018-05-04T23:25:24.591Z,14.07
2018-05-04T23:27:52.223Z,12.87
2018-05-04T23:30:19.815Z,13.80
2018-05-04T23:32:47.414Z,12.63
2018-05-04T23:35:14.981Z,12.93
2018-05-04T23:37:42.555Z,13.10
2018-05-04T23:40:24.428Z,13.60
2018-05-04T23:42:52.043Z,12.70
2018-05-04T23:45:19.647Z,13.33
2018-05-04T23:47:47.247Z,13.73
2018-05-04T23:50:14.856Z,13.53
2018-05-04T23:52:42.452Z,14.97
2018-05-04T23:55:10.044Z,15.90
2018-05-04T23:57:37.636Z,15.90
